Time;durP1;ratioP1;P1;durP2;ratioP2;P2;SDS_P1;SDS_P2;PMS_P1;PMS_P2;Temp;Humidity;BMP_temperature;BMP_pressure;BME280_temperature;BME280_humidity;BME280_pressure;Samples;Min_cycle;Max_cycle;Signal;HPM_P1;HPM_P2
2023/09/25 00:01:17;;;;;;;21.98;16.98;;;17.30;99.90;;;;;;4954201;29;20029;-82
2023/09/25 00:03:43;;;;;;;18.13;16.10;;;17.20;99.90;;;;;;4954211;28;20082;-82
2023/09/25 00:06:09;;;;;;;18.20;16.27;;;17.20;99.90;;;;;;4954439;28;20034;-83
2023/09/25 00:08:35;;;;;;;19.60;16.75;;;17.20;99.90;;;;;;4954173;28;20023;-82
2023/09/25 00:11:03;;;;;;;19.70;14.82;;;17.20;99.90;;;;;;4954511;29;20023;-82
2023/09/25 00:13:30;;;;;;;16.88;15.05;;;17.20;99.90;;;;;;4954137;29;20499;-83
2023/09/25 00:15:59;;;;;;;16.55;14.88;;;17.30;99.90;;;;;;4953798;28;20019;-82
2023/09/25 00:18:25;;;;;;;15.80;14.20;;;17.20;99.90;;;;;;4952521;29;20042;-84
2023/09/25 00:20:53;;;;;;;17.50;14.32;;;17.20;99.90;;;;;;4953648;28;20019;-82
2023/09/25 00:23:19;;;;;;;;;;;17.20;99.90;;;;;;4954133;28;20102;-83
2023/09/25 00:25:44;;;;;;;16.33;14.45;;;17.10;99.90;;;;;;4953855;28;20001;-81
2023/09/25 00:28:10;;;;;;;15.02;12.30;;;17.20;99.90;;;;;;4936640;29;20022;-82
2023/09/25 00:30:36;;;;;;;16.05;11.05;;;17.20;99.90;;;;;;4956019;28;20073;-82
2023/09/25 00:33:02;;;;;;;11.35;10.18;;;17.20;99.90;;;;;;4953892;29;20407;-83
2023/09/25 00:35:28;;;;;;;15.98;10.55;;;17.20;99.90;;;;;;4953711;29;20031;-81
2023/09/25 00:37:54;;;;;;;12.95;10.68;;;17.30;99.90;;;;;;4953337;28;20034;-80
2023/09/25 00:40:24;;;;;;;14.52;10.95;;;17.30;99.90;;;;;;4953505;29;20015;-82
2023/09/25 00:42:53;;;;;;;13.00;10.82;;;17.30;99.90;;;;;;4953511;28;20122;-81
2023/09/25 00:45:20;;;;;;;12.38;10.80;;;17.30;99.90;;;;;;4952952;28;20384;-81
2023/09/25 00:47:46;;;;;;;12.60;11.30;;;17.30;99.90;;;;;;4954722;29;20028;-82
2023/09/25 00:50:12;;;;;;;10.30;8.70;;;17.20;99.90;;;;;;4957069;29;20131;-81
2023/09/25 00:52:45;;;;;;;5.20;4.43;;;17.20;99.90;;;;;;4970247;28;20040;-82
2023/09/25 00:55:15;;;;;;;6.28;3.33;;;17.00;99.90;;;;;;4956688;28;20031;-84
2023/09/25 00:57:47;;;;;;;3.25;2.72;;;16.80;99.90;;;;;;4956792;29;20027;-84
2023/09/25 01:00:13;;;;;;;3.85;2.92;;;16.70;99.90;;;;;;4957751;28;20026;-84
2023/09/25 01:02:40;;;;;;;4.05;2.58;;;16.50;99.90;;;;;;4958137;28;20150;-85
2023/09/25 01:05:08;;;;;;;3.33;3.03;;;16.50;99.90;;;;;;4957773;28;20022;-84
2023/09/25 01:07:37;;;;;;;2.95;2.58;;;16.40;99.90;;;;;;4965663;28;20031;-84
2023/09/25 01:10:17;;;;;;;9.57;2.55;;;16.40;99.90;;;;;;4967006;28;20146;-85
2023/09/25 01:12:44;;;;;;;6.35;3.08;;;16.30;99.90;;;;;;4967952;29;20035;-83
2023/09/25 01:15:13;;;;;;;3.22;2.38;;;16.30;99.90;;;;;;4969421;28;20019;-84
2023/09/25 01:17:40;;;;;;;5.68;2.20;;;16.30;99.90;;;;;;4963305;28;20106;-85
2023/09/25 01:20:13;;;;;;;4.05;2.22;;;16.30;99.90;;;;;;4957695;29;20381;-84
2023/09/25 01:22:40;;;;;;;3.22;2.13;;;16.20;99.90;;;;;;4936855;29;20059;-85
2023/09/25 01:25:06;;;;;;;;;;;16.30;99.90;;;;;;4952103;29;20035;-84
2023/09/25 01:27:32;;;;;;;3.08;2.15;;;16.30;99.90;;;;;;4957179;28;19911;-84
2023/09/25 01:29:58;;;;;;;3.85;2.10;;;16.30;99.90;;;;;;4957298;29;20055;-84
2023/09/25 01:32:24;;;;;;;4.00;2.05;;;16.20;99.90;;;;;;4957203;28;20081;-85
2023/09/25 01:34:49;;;;;;;3.17;2.15;;;16.30;99.90;;;;;;4957408;29;20027;-84
2023/09/25 01:37:15;;;;;;;3.15;2.15;;;16.20;99.90;;;;;;4957231;28;20481;-83
2023/09/25 01:39:42;;;;;;;2.80;2.15;;;16.20;99.90;;;;;;4940198;29;20031;-84
2023/09/25 01:42:08;;;;;;;2.63;2.23;;;16.20;99.90;;;;;;4944518;29;20031;-85
2023/09/25 01:44:34;;;;;;;3.00;1.85;;;16.20;99.90;;;;;;4956861;29;20347;-85
2023/09/25 01:47:00;;;;;;;1.98;1.40;;;16.20;99.90;;;;;;4957421;29;20051;-83
2023/09/25 01:49:27;;;;;;;2.75;1.88;;;16.20;99.90;;;;;;4957895;29;20027;-83
2023/09/25 01:51:53;;;;;;;2.73;2.40;;;16.10;99.90;;;;;;4939451;29;20030;-83
2023/09/25 01:54:18;;;;;;;2.55;1.92;;;16.20;99.90;;;;;;4956715;28;20038;-84
2023/09/25 01:56:47;;;;;;;2.10;1.80;;;16.20;99.90;;;;;;4956863;28;20107;-83
2023/09/25 01:59:13;;;;;;;2.97;2.10;;;16.30;99.90;;;;;;4939572;28;20031;-84
2023/09/25 02:01:39;;;;;;;2.63;2.22;;;16.30;99.90;;;;;;4939802;29;20023;-85
2023/09/25 02:04:07;;;;;;;2.80;2.38;;;16.30;99.90;;;;;;4956552;28;20047;-84
2023/09/25 02:06:33;;;;;;;4.18;2.60;;;16.30;99.90;;;;;;4938216;29;20031;-85
2023/09/25 02:08:59;;;;;;;3.22;2.50;;;16.30;99.90;;;;;;4935782;29;20028;-81
2023/09/25 02:11:25;;;;;;;5.25;2.38;;;16.30;99.90;;;;;;4947027;28;20058;-81
2023/09/25 02:13:51;;;;;;;3.20;2.25;;;16.40;99.90;;;;;;4956217;28;20134;-81
2023/09/25 02:16:18;;;;;;;3.05;2.33;;;16.40;99.90;;;;;;4938829;29;20038;-81
2023/09/25 02:18:44;;;;;;;3.42;3.03;;;16.50;99.90;;;;;;4939206;29;20027;-81
2023/09/25 02:21:09;;;;;;;3.17;2.25;;;16.50;99.90;;;;;;4938863;29;20114;-83
2023/09/25 02:23:36;;;;;;;4.72;2.65;;;16.40;99.90;;;;;;4956459;28;20147;-84
2023/09/25 02:26:01;;;;;;;3.30;2.30;;;16.40;99.90;;;;;;4957346;28;20380;-83
2023/09/25 02:28:27;;;;;;;4.22;2.42;;;16.30;99.90;;;;;;4968309;28;20038;-84
2023/09/25 02:30:53;;;;;;;3.35;2.53;;;16.30;99.90;;;;;;4950129;29;20127;-84
2023/09/25 02:33:19;;;;;;;2.53;2.15;;;16.30;99.90;;;;;;4938639;29;20040;-83
2023/09/25 02:35:45;;;;;;;3.72;2.35;;;16.30;99.90;;;;;;4955935;28;20033;-85
2023/09/25 02:38:10;;;;;;;3.88;2.30;;;16.30;99.90;;;;;;4956105;28;20027;-83
2023/09/25 02:40:36;;;;;;;3.35;2.40;;;16.30;99.90;;;;;;4956469;28;20504;-83
2023/09/25 02:43:02;;;;;;;2.85;2.13;;;16.30;99.90;;;;;;4947476;29;20020;-82
2023/09/25 02:45:28;;;;;;;2.33;1.80;;;16.20;99.90;;;;;;4962334;29;20026;-83
2023/09/25 02:47:54;;;;;;;4.55;2.10;;;16.20;99.90;;;;;;4938709;29;20370;-83
2023/09/25 02:50:20;;;;;;;4.55;2.20;;;16.30;99.90;;;;;;4939397;29;20034;-84
2023/09/25 02:52:46;;;;;;;2.42;2.00;;;16.20;99.90;;;;;;4959265;29;20446;-83
2023/09/25 02:55:13;;;;;;;3.10;2.55;;;16.20;99.90;;;;;;4969319;29;20034;-83
2023/09/25 02:57:39;;;;;;;2.30;1.95;;;16.30;99.90;;;;;;4954993;28;20042;-83
2023/09/25 03:00:11;;;;;;;3.88;2.80;;;16.30;99.90;;;;;;4955771;28;20019;-83
2023/09/25 03:02:38;;;;;;;2.75;2.55;;;16.30;99.90;;;;;;4955793;28;20039;-84
2023/09/25 03:05:07;;;;;;;3.17;2.20;;;16.40;99.90;;;;;;4956469;29;20452;-84
2023/09/25 03:07:33;;;;;;;4.90;3.30;;;16.40;99.90;;;;;;4955815;28;20591;-84
2023/09/25 03:09:59;;;;;;;4.28;2.88;;;16.40;99.90;;;;;;4938084;29;20051;-83
2023/09/25 03:12:25;;;;;;;4.25;3.00;;;16.40;99.90;;;;;;4938140;29;20027;-83
2023/09/25 03:14:51;;;;;;;4.57;3.58;;;16.40;99.90;;;;;;4950226;28;20519;-83
2023/09/25 03:17:17;;;;;;;5.85;3.58;;;16.40;99.90;;;;;;4938316;28;20807;-83
2023/09/25 03:19:42;;;;;;;9.27;4.22;;;16.40;99.90;;;;;;4937879;29;20031;-83
2023/09/25 03:22:08;;;;;;;4.63;3.72;;;16.40;99.90;;;;;;4938198;29;20031;-83
2023/09/25 03:24:35;;;;;;;5.55;4.30;;;16.40;99.90;;;;;;4955709;29;20062;-83
2023/09/25 03:27:00;;;;;;;4.82;4.40;;;16.40;99.90;;;;;;4953997;29;20424;-83
2023/09/25 03:29:26;;;;;;;8.82;5.63;;;16.30;99.90;;;;;;4950123;28;20044;-83
2023/09/25 03:31:52;;;;;;;6.30;5.28;;;16.20;99.50;;;;;;4950793;28;20170;-83
2023/09/25 03:34:20;;;;;;;6.53;5.22;;;16.10;99.60;;;;;;4937380;29;20046;-83
2023/09/25 03:36:46;;;;;;;9.13;6.18;;;16.10;99.70;;;;;;4937398;28;20393;-84
2023/09/25 03:39:11;;;;;;;5.53;4.93;;;16.00;99.80;;;;;;4935969;28;20024;-82
2023/09/25 03:41:37;;;;;;;7.50;4.90;;;16.00;99.80;;;;;;4954436;28;20023;-82
2023/09/25 03:44:04;;;;;;;5.03;4.32;;;16.00;99.90;;;;;;4969020;28;20027;-83
2023/09/25 03:46:30;;;;;;;6.22;5.43;;;16.00;99.90;;;;;;4955958;28;20429;-83
2023/09/25 03:48:55;;;;;;;5.85;5.30;;;16.00;99.90;;;;;;4957782;28;20110;-82
2023/09/25 03:51:21;;;;;;;9.05;6.20;;;16.00;99.90;;;;;;4964984;28;20098;-84
2023/09/25 03:53:47;;;;;;;6.22;5.22;;;16.00;99.90;;;;;;4941717;29;20477;-82
2023/09/25 03:56:13;;;;;;;4.80;4.30;;;16.00;99.70;;;;;;4937415;29;20019;-82
2023/09/25 03:58:39;;;;;;;6.55;5.22;;;16.00;99.30;;;;;;4931863;29;20031;-83
2023/09/25 04:01:05;;;;;;;5.35;4.70;;;16.00;99.10;;;;;;4954169;28;20023;-82
2023/09/25 04:03:31;;;;;;;5.90;4.85;;;16.00;98.50;;;;;;4955692;29;20034;-82
2023/09/25 04:05:57;;;;;;;6.47;5.10;;;16.00;98.40;;;;;;4967141;29;20020;-84
2023/09/25 04:08:23;;;;;;;6.60;5.53;;;16.10;98.50;;;;;;4963609;29;20024;-84
2023/09/25 04:10:49;;;;;;;6.35;4.90;;;16.10;98.40;;;;;;4958783;29;20024;-82
2023/09/25 04:13:16;;;;;;;9.27;4.83;;;16.20;98.30;;;;;;4937646;29;20027;-84
2023/09/25 04:15:41;;;;;;;6.30;4.82;;;16.20;98.30;;;;;;4935912;29;20034;-83
2023/09/25 04:18:08;;;;;;;8.55;5.47;;;16.20;98.20;;;;;;4954125;29;20486;-83
2023/09/25 04:20:34;;;;;;;8.00;5.10;;;16.20;98.00;;;;;;4937427;29;20396;-84
2023/09/25 04:22:59;;;;;;;6.10;5.43;;;16.10;98.00;;;;;;4954722;29;20106;-83
2023/09/25 04:25:27;;;;;;;4.35;3.95;;;16.10;98.10;;;;;;4954930;29;20051;-83
2023/09/25 04:27:55;;;;;;;6.88;4.10;;;16.00;98.00;;;;;;4955940;29;20068;-83
2023/09/25 04:30:23;;;;;;;7.47;4.00;;;16.10;97.90;;;;;;4946196;29;20612;-82
2023/09/25 04:32:54;;;;;;;9.43;4.18;;;16.00;97.60;;;;;;4961529;29;20093;-82
2023/09/25 04:35:21;;;;;;;8.15;4.75;;;16.00;96.90;;;;;;4951987;29;20056;-84
2023/09/25 04:37:48;;;;;;;7.45;5.13;;;15.90;96.70;;;;;;4924201;29;20460;-83
2023/09/25 04:40:30;;;;;;;10.90;8.23;;;15.90;96.80;;;;;;4941109;29;20090;-85
2023/09/25 04:42:57;;;;;;;7.47;5.03;;;16.00;96.90;;;;;;4940110;29;20489;-82
2023/09/25 04:45:23;;;;;;;6.53;5.47;;;16.00;97.00;;;;;;4924267;29;20040;-83
2023/09/25 04:47:53;;;;;;;9.05;5.05;;;16.10;96.70;;;;;;4940879;29;20269;-84
2023/09/25 04:50:21;;;;;;;5.18;4.60;;;16.20;96.70;;;;;;4942185;29;20063;-83
2023/09/25 04:52:48;;;;;;;6.30;4.90;;;16.30;96.80;;;;;;4942880;29;20043;-84
2023/09/25 04:55:14;;;;;;;6.00;5.10;;;16.30;96.40;;;;;;4949800;29;20544;-82
2023/09/25 04:57:45;;;;;;;5.55;4.70;;;16.40;96.20;;;;;;4939026;29;20038;-82
2023/09/25 05:00:21;;;;;;;10.02;5.72;;;16.50;95.80;;;;;;4937585;29;20172;-83
2023/09/25 05:02:49;;;;;;;6.20;5.60;;;16.50;95.70;;;;;;4956687;29;20032;-82
2023/09/25 05:05:16;;;;;;;5.25;4.47;;;16.60;95.50;;;;;;4944427;29;20028;-83
2023/09/25 05:07:43;;;;;;;10.30;6.43;;;16.50;94.90;;;;;;4961896;28;20100;-82
2023/09/25 05:10:14;;;;;;;9.60;5.53;;;16.50;95.00;;;;;;4962160;28;20086;-83
2023/09/25 05:12:40;;;;;;;6.20;4.82;;;16.50;95.20;;;;;;4936671;29;20058;-80
2023/09/25 05:15:07;;;;;;;7.90;5.22;;;16.50;95.00;;;;;;4960758;29;20019;-82
2023/09/25 05:17:37;;;;;;;8.25;4.82;;;16.40;95.00;;;;;;4943411;29;20034;-83
2023/09/25 05:20:10;;;;;;;6.40;4.80;;;16.30;95.00;;;;;;4960319;29;20023;-82
2023/09/25 05:22:38;;;;;;;8.93;5.50;;;16.30;94.80;;;;;;4943022;29;20358;-81
2023/09/25 05:25:05;;;;;;;;;;;16.30;95.20;;;;;;4943724;28;20493;-82
2023/09/25 05:27:31;;;;;;;4.70;4.15;;;16.30;95.10;;;;;;4950482;29;19976;-83
2023/09/25 05:29:57;;;;;;;6.38;4.68;;;16.30;94.60;;;;;;4960377;28;20055;-82
2023/09/25 05:32:23;;;;;;;4.72;3.88;;;16.30;94.40;;;;;;4942788;29;20045;-82
2023/09/25 05:34:49;;;;;;;6.25;4.18;;;16.30;94.50;;;;;;4960261;28;20499;-83
2023/09/25 05:37:15;;;;;;;5.95;4.03;;;16.30;94.30;;;;;;4960319;28;20362;-83
2023/09/25 05:39:40;;;;;;;7.15;4.28;;;16.30;94.10;;;;;;4964796;28;20031;-82
2023/09/25 05:42:06;;;;;;;7.65;4.85;;;16.40;94.10;;;;;;4970996;28;20038;-82
2023/09/25 05:44:32;;;;;;;6.72;4.80;;;16.40;94.10;;;;;;4941468;29;20038;-84
2023/09/25 05:47:01;;;;;;;6.28;5.05;;;16.50;94.10;;;;;;4940313;29;20072;-82
2023/09/25 05:49:26;;;;;;;6.25;4.72;;;16.50;94.00;;;;;;4940358;29;20038;-84
2023/09/25 05:51:54;;;;;;;6.82;4.93;;;16.60;93.90;;;;;;4956066;29;20031;-81
2023/09/25 05:54:22;;;;;;;5.53;5.00;;;16.60;93.60;;;;;;4940386;29;20042;-83
2023/09/25 05:56:49;;;;;;;6.07;4.40;;;16.50;93.70;;;;;;4957466;29;20496;-81
2023/09/25 05:59:18;;;;;;;9.65;5.70;;;16.60;93.70;;;;;;4957583;29;20115;-82
2023/09/25 06:01:44;;;;;;;10.52;5.63;;;16.80;94.10;;;;;;4956588;29;20127;-82
2023/09/25 06:04:10;;;;;;;10.75;5.80;;;17.00;93.60;;;;;;4956210;29;20110;-83
2023/09/25 06:06:36;;;;;;;7.78;5.93;;;17.20;93.30;;;;;;4939566;29;20027;-83
2023/09/25 06:09:02;;;;;;;6.22;5.63;;;17.50;93.00;;;;;;4938981;29;20118;-82
2023/09/25 06:11:28;;;;;;;9.00;5.50;;;17.50;92.80;;;;;;4956373;29;20492;-82
2023/09/25 06:13:54;;;;;;;6.00;5.20;;;17.50;92.80;;;;;;4956566;29;20445;-84
2023/09/25 06:16:20;;;;;;;6.03;5.43;;;17.70;92.50;;;;;;4956417;29;20043;-84
2023/09/25 06:18:47;;;;;;;6.50;5.90;;;17.70;92.20;;;;;;4956630;29;20041;-82
2023/09/25 06:21:13;;;;;;;6.38;5.13;;;17.80;92.00;;;;;;4941514;29;20453;-83
2023/09/25 06:23:40;;;;;;;8.57;5.65;;;17.80;91.80;;;;;;4954184;29;20046;-83
2023/09/25 06:26:09;;;;;;;9.07;6.50;;;17.60;91.90;;;;;;4958008;28;20023;-83
2023/09/25 06:28:35;;;;;;;6.80;5.97;;;17.40;92.20;;;;;;4940715;29;20023;-84
2023/09/25 06:31:01;;;;;;;6.53;5.82;;;17.40;92.30;;;;;;4956167;28;20039;-85
2023/09/25 06:33:28;;;;;;;7.18;5.45;;;17.40;92.60;;;;;;4951015;28;20043;-83
2023/09/25 06:35:55;;;;;;;7.97;5.40;;;17.60;91.70;;;;;;4955315;29;20034;-83
2023/09/25 06:38:21;;;;;;;7.53;5.05;;;17.70;91.20;;;;;;4938407;29;20109;-83
2023/09/25 06:40:47;;;;;;;6.00;5.40;;;17.70;91.00;;;;;;4955752;29;20023;-83
2023/09/25 06:43:14;;;;;;;5.45;4.80;;;17.60;90.80;;;;;;4952924;28;20023;-83
2023/09/25 06:45:40;;;;;;;9.40;4.68;;;17.60;90.30;;;;;;4949467;29;20070;-82
2023/09/25 06:48:06;;;;;;;5.70;4.23;;;17.60;90.50;;;;;;4938239;29;20034;-82
2023/09/25 06:50:33;;;;;;;8.32;4.38;;;17.60;90.10;;;;;;4946072;28;20465;-85
2023/09/25 06:52:59;;;;;;;6.93;5.15;;;17.80;90.10;;;;;;4937714;29;20035;-85
2023/09/25 06:55:25;;;;;;;5.80;4.07;;;18.00;88.00;;;;;;4956973;29;20393;-84
2023/09/25 06:57:51;;;;;;;6.97;4.55;;;18.10;87.70;;;;;;4939502;29;20870;-84
2023/09/25 07:00:18;;;;;;;4.70;4.20;;;18.00;86.80;;;;;;4941675;29;20027;-84
2023/09/25 07:02:44;;;;;;;9.57;4.90;;;17.90;86.80;;;;;;4956332;28;20493;-85
2023/09/25 07:05:10;;;;;;;8.02;3.65;;;17.80;86.00;;;;;;4948495;29;20273;-81
2023/09/25 07:07:36;;;;;;;6.70;4.50;;;17.70;86.80;;;;;;4954944;29;20035;-81
2023/09/25 07:10:06;;;;;;;5.55;3.60;;;17.70;86.80;;;;;;4944471;29;20500;-81
2023/09/25 07:12:33;;;;;;;8.65;6.80;;;17.70;86.50;;;;;;4956452;28;20060;-80
2023/09/25 07:15:01;;;;;;;4.73;4.33;;;17.70;87.00;;;;;;4954974;28;20019;-80
2023/09/25 07:17:28;;;;;;;6.55;5.45;;;17.80;87.00;;;;;;4956760;29;20038;-80
2023/09/25 07:19:55;;;;;;;6.40;4.73;;;17.80;87.80;;;;;;4955853;28;20425;-80
2023/09/25 07:22:22;;;;;;;5.47;4.43;;;17.80;86.40;;;;;;4954492;28;20465;-82
2023/09/25 07:24:49;;;;;;;17.25;6.55;;;17.80;86.30;;;;;;4937319;29;20035;-79
2023/09/25 07:27:15;;;;;;;24.80;7.13;;;17.80;86.40;;;;;;4954839;29;20374;-81
2023/09/25 07:29:48;;;;;;;10.52;5.20;;;17.80;86.90;;;;;;4937098;29;20139;-81
2023/09/25 07:32:14;;;;;;;19.15;6.40;;;17.80;87.00;;;;;;4930153;29;20034;-81
2023/09/25 07:34:45;;;;;;;5.97;4.70;;;17.80;87.10;;;;;;4947530;28;20067;-80
2023/09/25 07:37:12;;;;;;;6.53;4.00;;;17.70;86.40;;;;;;4941090;29;20024;-81
2023/09/25 07:39:41;;;;;;;;;;;17.70;86.10;;;;;;4951522;29;20035;-81
2023/09/25 07:42:10;;;;;;;56.47;13.68;;;17.80;86.30;;;;;;4940677;28;19957;-82
2023/09/25 07:44:36;;;;;;;9.38;4.88;;;17.80;86.50;;;;;;4957510;28;20034;-82
2023/09/25 07:47:06;;;;;;;5.47;4.40;;;17.90;85.60;;;;;;4954091;28;20035;-81
2023/09/25 07:49:44;;;;;;;7.35;4.13;;;17.70;85.40;;;;;;4954094;28;20058;-80
2023/09/25 07:52:19;;;;;;;5.65;3.40;;;17.70;86.00;;;;;;4938708;29;20031;-82
2023/09/25 07:54:48;;;;;;;7.32;4.68;;;17.60;85.90;;;;;;4951980;28;20039;-82
2023/09/25 07:57:20;;;;;;;4.38;3.65;;;17.70;85.80;;;;;;4954718;29;20425;-80
2023/09/25 07:59:46;;;;;;;4.18;3.45;;;17.80;85.00;;;;;;4954470;29;20488;-82
2023/09/25 08:02:20;;;;;;;5.35;3.50;;;17.90;84.10;;;;;;4931036;29;20046;-83
2023/09/25 08:04:47;;;;;;;5.97;3.17;;;18.00;84.00;;;;;;4938323;29;20023;-81
2023/09/25 08:07:13;;;;;;;4.53;3.85;;;18.20;83.60;;;;;;4947192;29;20027;-82
2023/09/25 08:09:40;;;;;;;7.43;3.92;;;18.20;83.60;;;;;;4956517;28;20055;-81
2023/09/25 08:12:06;;;;;;;8.18;4.97;;;18.20;83.70;;;;;;4945319;29;20023;-82
2023/09/25 08:14:35;;;;;;;15.32;5.95;;;18.30;83.60;;;;;;4961873;29;20170;-81
2023/09/25 08:17:02;;;;;;;30.08;23.70;;;18.50;83.40;;;;;;4954435;29;20363;-82
2023/09/25 08:19:28;;;;;;;8.48;4.85;;;18.60;82.60;;;;;;4936457;29;20050;-81
2023/09/25 08:21:53;;;;;;;7.07;4.20;;;18.70;81.80;;;;;;4954487;29;20366;-81
2023/09/25 08:24:20;;;;;;;4.93;3.58;;;18.80;81.10;;;;;;4936286;29;20065;-80
2023/09/25 08:26:46;;;;;;;9.18;6.18;;;18.80;80.60;;;;;;4954354;29;20118;-80
2023/09/25 08:29:16;;;;;;;4.88;4.35;;;18.70;80.90;;;;;;4951536;29;20115;-81
2023/09/25 08:31:45;;;;;;;5.70;4.47;;;18.50;81.10;;;;;;4954309;29;20098;-82
2023/09/25 08:34:11;;;;;;;7.10;4.78;;;18.30;82.00;;;;;;4954430;29;20098;-81
2023/09/25 08:36:37;;;;;;;8.38;4.53;;;18.20;82.80;;;;;;4954140;28;20031;-80
2023/09/25 08:39:04;;;;;;;6.45;4.68;;;18.10;83.30;;;;;;4936956;29;20054;-81
2023/09/25 08:41:32;;;;;;;11.13;4.82;;;18.10;83.90;;;;;;4954464;29;20380;-80
2023/09/25 08:43:58;;;;;;;7.47;4.85;;;17.90;84.60;;;;;;4953391;28;20101;-81
2023/09/25 08:46:25;;;;;;;5.15;4.65;;;17.70;85.30;;;;;;4936387;29;20034;-79
2023/09/25 08:48:56;;;;;;;7.68;5.00;;;17.70;85.70;;;;;;4953902;28;20086;-80
2023/09/25 08:51:31;;;;;;;9.13;4.88;;;17.60;85.90;;;;;;4953853;29;20027;-80
2023/09/25 08:53:57;;;;;;;12.55;9.27;;;17.60;86.40;;;;;;4942650;29;20059;-80
2023/09/25 08:56:24;;;;;;;7.30;5.95;;;17.70;86.80;;;;;;4939570;29;20027;-81
2023/09/25 08:58:51;;;;;;;10.87;6.73;;;17.70;86.90;;;;;;4936191;29;20508;-80
2023/09/25 09:01:18;;;;;;;10.20;5.95;;;17.80;87.10;;;;;;4954991;28;20517;-80
2023/09/25 09:03:44;;;;;;;9.38;6.78;;;17.90;87.20;;;;;;4955112;29;20114;-81
2023/09/25 09:06:10;;;;;;;10.85;6.20;;;17.80;86.90;;;;;;4937866;28;20086;-81
2023/09/25 09:08:36;;;;;;;7.75;5.25;;;17.90;87.50;;;;;;4953603;29;20547;-79
2023/09/25 09:11:21;;;;;;;15.63;10.45;;;17.90;87.60;;;;;;4953411;29;20046;-81
2023/09/25 09:13:48;;;;;;;15.43;7.32;;;18.10;87.10;;;;;;4953256;28;20042;-79
2023/09/25 09:16:17;;;;;;;10.27;5.53;;;18.30;86.50;;;;;;4954983;28;20025;-79
2023/09/25 09:18:45;;;;;;;11.43;6.60;;;18.50;85.80;;;;;;4957748;28;20032;-80
2023/09/25 09:21:26;;;;;;;9.98;5.93;;;18.70;85.40;;;;;;4959692;28;20075;-80
2023/09/25 09:23:57;;;;;;;16.13;6.68;;;18.90;84.70;;;;;;4958069;28;20050;-79
2023/09/25 09:26:24;;;;;;;13.15;6.53;;;19.00;83.90;;;;;;4940116;29;20504;-79
2023/09/25 09:28:59;;;;;;;12.05;6.88;;;19.10;83.40;;;;;;4955676;28;20031;-81
2023/09/25 09:31:25;;;;;;;8.65;6.05;;;19.10;83.40;;;;;;4939417;29;20024;-80
2023/09/25 09:33:55;;;;;;;7.70;5.22;;;19.10;83.20;;;;;;4956112;28;20031;-81
2023/09/25 09:36:20;;;;;;;51.42;14.88;;;19.00;82.20;;;;;;4948062;28;20500;-80
2023/09/25 09:38:47;;;;;;;8.15;5.18;;;18.80;81.90;;;;;;4939349;29;20031;-81
2023/09/25 09:41:15;;;;;;;8.15;5.07;;;18.70;81.80;;;;;;4957309;28;20058;-81
2023/09/25 09:43:41;;;;;;;7.72;3.72;;;18.50;81.90;;;;;;4939392;29;20054;-85
2023/09/25 09:46:11;;;;;;;8.70;6.93;;;18.60;81.50;;;;;;4953507;28;20026;-82
2023/09/25 09:48:39;;;;;;;8.38;4.07;;;18.90;80.60;;;;;;4942351;29;20023;-81
2023/09/25 09:51:09;;;;;;;9.77;5.32;;;19.30;79.60;;;;;;4940386;29;20369;-81
2023/09/25 09:53:38;;;;;;;7.63;4.35;;;19.80;78.10;;;;;;4956197;29;20062;-82
2023/09/25 09:56:11;;;;;;;8.82;4.90;;;20.10;76.90;;;;;;4939555;29;20031;-82
2023/09/25 09:58:38;;;;;;;6.78;4.15;;;20.70;75.70;;;;;;4939646;29;20491;-82
2023/09/25 10:01:04;;;;;;;4.25;3.42;;;21.80;73.10;;;;;;4956295;29;20054;-81
2023/09/25 10:03:31;;;;;;;4.15;3.75;;;22.60;68.80;;;;;;4953049;29;20035;-83
2023/09/25 10:05:57;;;;;;;7.60;3.20;;;22.50;68.30;;;;;;4955233;28;20027;-81
2023/09/25 10:08:22;;;;;;;6.18;3.95;;;22.20;67.60;;;;;;4956290;28;20062;-82
2023/09/25 10:10:51;;;;;;;8.05;4.88;;;21.70;68.80;;;;;;4946959;28;20491;-82
2023/09/25 10:13:22;;;;;;;7.22;4.25;;;21.50;69.90;;;;;;4954543;28;20050;-83
2023/09/25 10:16:00;;;;;;;6.97;4.18;;;21.30;70.70;;;;;;4939279;29;20400;-82
2023/09/25 10:18:31;;;;;;;9.43;4.97;;;21.30;71.00;;;;;;4939268;28;20044;-83
2023/09/25 10:21:16;;;;;;;4.97;4.18;;;21.30;70.70;;;;;;4953721;29;20800;-85
2023/09/25 10:23:54;;;;;;;6.93;3.78;;;20.90;70.90;;;;;;4956816;28;20110;-83
2023/09/25 10:26:25;;;;;;;7.72;4.10;;;20.30;72.50;;;;;;4940524;29;20473;-82
2023/09/25 10:29:12;;;;;;;7.25;4.30;;;20.00;74.00;;;;;;4950123;28;20388;-85
2023/09/25 10:31:38;;;;;;;5.13;4.07;;;19.60;75.00;;;;;;4945083;29;20444;-83
2023/09/25 10:34:08;;;;;;;6.57;4.30;;;19.40;75.30;;;;;;4958289;28;20031;-81
2023/09/25 10:36:41;;;;;;;8.45;4.38;;;19.20;76.10;;;;;;4956474;28;20023;-81
2023/09/25 10:39:12;;;;;;;6.82;5.53;;;19.10;76.60;;;;;;4955188;28;20031;-84
2023/09/25 10:41:39;;;;;;;4.78;3.88;;;19.10;77.20;;;;;;4955877;29;20015;-82
2023/09/25 10:44:05;;;;;;;6.78;4.30;;;19.10;77.20;;;;;;4955826;28;20030;-83
2023/09/25 10:46:31;;;;;;;7.20;6.30;;;19.20;77.40;;;;;;4955897;28;20019;-81
2023/09/25 10:48:57;;;;;;;6.97;4.32;;;19.20;77.60;;;;;;4955240;28;20432;-82
2023/09/25 10:51:23;;;;;;;4.50;4.10;;;19.20;78.10;;;;;;4956048;28;20396;-83
2023/09/25 10:53:49;;;;;;;8.02;4.28;;;19.20;77.80;;;;;;4955898;28;20038;-86
2023/09/25 10:56:16;;;;;;;4.95;3.95;;;19.10;77.70;;;;;;4936058;29;20455;-82
2023/09/25 10:58:52;;;;;;;6.22;3.50;;;19.20;76.80;;;;;;4955749;29;20154;-81
2023/09/25 11:01:27;;;;;;;5.43;4.28;;;19.10;76.90;;;;;;4955595;29;20031;-78
2023/09/25 11:03:53;;;;;;;6.03;3.97;;;19.00;76.90;;;;;;4956369;29;20038;-82
2023/09/25 11:06:19;;;;;;;9.70;4.90;;;18.90;77.40;;;;;;4939941;29;20027;-83
2023/09/25 11:08:45;;;;;;;8.75;4.88;;;19.00;78.00;;;;;;4935767;29;20024;-81
2023/09/25 11:11:14;;;;;;;7.05;4.88;;;19.00;78.30;;;;;;4952590;29;20106;-83
2023/09/25 11:13:41;;;;;;;5.75;5.18;;;19.10;78.40;;;;;;4954773;29;20090;-83
2023/09/25 11:16:08;;;;;;;7.97;6.17;;;19.10;78.20;;;;;;4954981;29;20023;-84
2023/09/25 11:18:33;;;;;;;8.10;5.95;;;19.00;78.40;;;;;;4937561;29;20027;-80
2023/09/25 11:20:59;;;;;;;12.43;6.72;;;18.90;79.00;;;;;;4954771;29;20493;-78
2023/09/25 11:23:25;;;;;;;19.05;14.48;;;18.80;79.40;;;;;;4954671;28;20027;-80
2023/09/25 11:25:53;;;;;;;16.63;14.65;;;18.80;80.00;;;;;;4954687;28;20110;-81
2023/09/25 11:28:21;;;;;;;18.48;12.82;;;18.80;80.10;;;;;;4937275;29;20027;-80
2023/09/25 11:30:47;;;;;;;10.93;9.20;;;18.70;80.30;;;;;;4954757;29;20051;-85
2023/09/25 11:33:22;;;;;;;17.98;10.98;;;18.70;80.50;;;;;;4955676;29;20027;-84
2023/09/25 11:35:51;;;;;;;28.85;9.18;;;18.70;80.30;;;;;;4955274;29;20046;-84
2023/09/25 11:38:23;;;;;;;12.55;6.45;;;18.70;80.40;;;;;;4955477;28;20082;-83
2023/09/25 11:40:50;;;;;;;8.05;4.45;;;18.70;80.10;;;;;;4954784;29;20038;-85
2023/09/25 11:43:16;;;;;;;7.40;4.37;;;18.70;79.90;;;;;;4955501;29;20023;-83
2023/09/25 11:45:42;;;;;;;9.48;4.80;;;18.70;79.70;;;;;;4938613;29;20094;-80
2023/09/25 11:48:16;;;;;;;9.00;5.47;;;18.80;79.70;;;;;;4955513;29;20038;-79
2023/09/25 11:50:42;;;;;;;6.05;4.20;;;18.80;78.50;;;;;;4958169;29;20031;-84
2023/09/25 11:53:08;;;;;;;9.43;4.40;;;18.80;78.30;;;;;;4961348;28;20085;-83
2023/09/25 11:55:34;;;;;;;6.50;4.13;;;18.80;78.40;;;;;;4961388;28;20106;-83
2023/09/25 11:58:01;;;;;;;7.03;5.22;;;18.80;78.10;;;;;;4948708;29;20047;-81
2023/09/25 12:00:30;;;;;;;18.17;8.60;;;18.80;78.50;;;;;;4934579;29;20473;-84
2023/09/25 12:02:57;;;;;;;10.80;4.13;;;18.80;78.70;;;;;;4956269;28;20023;-83
2023/09/25 12:05:24;;;;;;;11.85;5.35;;;18.80;78.30;;;;;;4962635;28;20035;-80
2023/09/25 12:07:56;;;;;;;6.53;3.30;;;18.80;78.20;;;;;;4939514;29;20047;-82
2023/09/25 12:10:22;;;;;;;6.68;3.28;;;19.00;77.00;;;;;;4953174;28;20408;-85
2023/09/25 12:12:48;;;;;;;7.28;4.22;;;18.90;76.40;;;;;;4953937;28;20027;-82
2023/09/25 12:15:15;;;;;;;6.35;3.67;;;18.80;76.70;;;;;;4954312;28;20011;-86
2023/09/25 12:17:42;;;;;;;9.65;4.35;;;18.70;78.10;;;;;;4954626;29;20027;-85
2023/09/25 12:20:14;;;;;;;5.15;3.20;;;18.80;77.10;;;;;;4954560;29;20685;-85
2023/09/25 12:22:45;;;;;;;4.60;3.33;;;18.70;76.30;;;;;;4936931;29;20023;-84
2023/09/25 12:25:16;;;;;;;6.07;2.88;;;18.60;76.30;;;;;;4937451;29;20107;-85
2023/09/25 12:27:43;;;;;;;6.95;3.58;;;18.50;75.80;;;;;;4957682;29;20024;-91
2023/09/25 12:30:13;;;;;;;4.78;2.67;;;18.40;75.90;;;;;;4941496;29;20059;-90
2023/09/25 12:32:39;;;;;;;5.03;2.58;;;18.40;75.90;;;;;;4963130;29;20041;-89
2023/09/25 12:35:16;;;;;;;7.68;2.92;;;18.40;75.70;;;;;;4944553;29;20086;-87
2023/09/25 12:37:47;;;;;;;9.20;3.25;;;18.40;75.80;;;;;;4960618;29;20030;-88
2023/09/25 12:40:15;;;;;;;7.47;2.88;;;18.40;76.00;;;;;;4938694;29;20035;-85
2023/09/25 12:42:42;;;;;;;4.55;3.45;;;18.50;76.10;;;;;;4933354;29;20393;-83
2023/09/25 12:45:09;;;;;;;8.40;3.88;;;18.60;76.60;;;;;;4951116;29;20020;-84
2023/09/25 12:47:35;;;;;;;6.22;3.30;;;18.70;76.30;;;;;;4933054;29;20028;-83